KSEP/SEP METAR and TAF weather

Enter ICAO airport designator
Station Type Date Time Source
KSEP METAR 2021/07/24 20:15 UTC NOAA

KSEP 242015Z AUTO 22008G15KT 10SM CLR 35/17 A3006 RMK AO2 T03530165


Station Type Date Time Source
KSEP Decoded METAR 2021/07/24 20:15 UTC NOAA

Stephenville, Clark Field Municipal Airport, TX, United States (KSEP) 32-13N 098-11W 402M
Jul 24, 2021 - 04:15 PM EDT / 2021.07.24 2015 UTC
Wind: from the SW (220 degrees) at 9 MPH (8 KT) gusting to 17 MPH (15 KT):0
Visibility: 10 mile(s):0
Sky conditions: clear
Temperature: 95.5 F (35.3 C)
Heat index: 95.9 F (35.5 C):1
Dew Point: 61.7 F (16.5 C)
Relative Humidity: 32%
Pressure (altimeter): 30.06 in. Hg (1017 hPa)
ob: KSEP 242015Z AUTO 22008G15KT 10SM CLR 35/17 A3006 RMK AO2 T03530165
cycle: 20

Station Type Date Time Source
KSEP TAF UTC NOAA

Error!

Example: see airport list